createdAt,value
2018-07-24T00:00:17.995Z,97008
2018-07-24T00:01:33.963Z,97008
2018-07-24T00:02:49.891Z,97006
2018-07-24T00:04:05.790Z,97008
2018-07-24T00:05:21.760Z,97002
2018-07-24T00:06:37.692Z,97003
2018-07-24T00:07:53.610Z,97001
2018-07-24T00:09:09.477Z,97003
2018-07-24T00:10:25.377Z,97000
2018-07-24T00:11:41.288Z,96998
2018-07-24T00:12:57.200Z,97000
2018-07-24T00:14:13.077Z,96999
2018-07-24T00:15:28.984Z,96999
2018-07-24T00:16:44.909Z,96999
2018-07-24T00:18:00.804Z,96996
2018-07-24T00:19:16.687Z,96992
2018-07-24T00:20:32.576Z,97000
2018-07-24T00:21:48.456Z,96998
2018-07-24T00:23:04.386Z,96999
2018-07-24T00:24:20.353Z,96998
2018-07-24T00:25:36.217Z,97000
2018-07-24T00:26:52.111Z,96996
2018-07-24T00:28:08.012Z,96995
2018-07-24T00:29:23.889Z,96997
2018-07-24T00:30:40.756Z,96992
2018-07-24T00:31:56.659Z,96993
2018-07-24T00:33:12.531Z,96992
2018-07-24T00:34:28.429Z,96988
2018-07-24T00:35:44.314Z,96988
2018-07-24T00:37:00.222Z,96985
2018-07-24T00:38:16.160Z,96987
2018-07-24T00:39:32.047Z,96985
2018-07-24T00:40:47.907Z,96985
2018-07-24T00:42:03.791Z,96984
2018-07-24T00:43:19.715Z,96983
2018-07-24T00:44:35.606Z,96982
2018-07-24T00:45:51.512Z,96981
2018-07-24T00:47:07.374Z,96983
2018-07-24T00:48:23.286Z,96986
2018-07-24T00:49:39.197Z,96984
2018-07-24T00:50:55.069Z,96988
2018-07-24T00:52:11.941Z,96983
2018-07-24T00:53:27.836Z,96985
2018-07-24T00:54:43.766Z,96984
2018-07-24T00:55:59.685Z,96981
2018-07-24T00:57:15.546Z,96979
2018-07-24T00:58:31.465Z,96980
2018-07-24T00:59:47.377Z,96980
2018-07-24T01:01:03.261Z,96980
2018-07-24T01:02:19.144Z,96978
2018-07-24T01:03:35.053Z,96977
2018-07-24T01:04:50.962Z,96976
2018-07-24T01:06:06.856Z,96973
2018-07-24T01:07:22.725Z,96974
2018-07-24T01:08:38.732Z,96968
2018-07-24T01:09:54.499Z,96969
2018-07-24T01:11:10.397Z,96968
2018-07-24T01:12:26.277Z,96967
2018-07-24T01:13:42.161Z,96972
2018-07-24T01:14:58.057Z,96967
2018-07-24T01:16:13.949Z,96971
2018-07-24T01:17:29.823Z,96967
2018-07-24T01:18:45.690Z,96965
2018-07-24T01:20:01.585Z,96969
2018-07-24T01:21:17.532Z,96962
2018-07-24T01:22:33.448Z,96969
2018-07-24T01:23:49.313Z,96963
2018-07-24T01:25:05.194Z,96963
2018-07-24T01:26:21.104Z,96962
2018-07-24T01:27:37.034Z,96961
2018-07-24T01:28:52.926Z,96960
2018-07-24T01:30:08.799Z,96958
2018-07-24T01:31:24.693Z,96960
2018-07-24T01:32:40.604Z,96962
2018-07-24T01:33:56.534Z,96961
2018-07-24T01:35:12.407Z,96960
2018-07-24T01:36:28.299Z,96957
2018-07-24T01:37:44.231Z,96955
2018-07-24T01:39:00.122Z,96957
2018-07-24T01:40:16.015Z,96952
2018-07-24T01:41:32.886Z,96954
2018-07-24T01:42:48.782Z,96951
2018-07-24T01:44:04.700Z,96949
2018-07-24T01:45:20.610Z,96948
2018-07-24T01:46:36.499Z,96944
2018-07-24T01:47:52.378Z,96945
2018-07-24T01:49:08.260Z,96945
2018-07-24T01:50:24.144Z,96945
2018-07-24T01:51:41.052Z,96949
2018-07-24T01:52:56.954Z,96946
2018-07-24T01:54:12.878Z,96944
2018-07-24T01:55:28.728Z,96939
2018-07-24T01:56:44.719Z,96942
2018-07-24T01:58:00.629Z,96940
2018-07-24T01:59:16.553Z,96942
2018-07-24T02:00:32.451Z,96941
2018-07-24T02:01:48.376Z,96935
2018-07-24T02:03:04.252Z,96938
2018-07-24T02:04:20.152Z,96938
2018-07-24T02:05:36.061Z,96938
2018-07-24T02:06:51.946Z,96938
2018-07-24T02:08:07.873Z,96936
2018-07-24T02:09:23.794Z,96937
2018-07-24T02:10:39.691Z,96935
2018-07-24T02:11:55.573Z,96930
2018-07-24T02:13:11.471Z,96934
2018-07-24T02:14:27.532Z,96927
2018-07-24T02:15:43.431Z,96926
2018-07-24T02:16:59.323Z,96928
2018-07-24T02:18:15.252Z,96930
2018-07-24T02:19:31.128Z,96929
2018-07-24T02:21:04.954Z,96930
2018-07-24T02:22:20.837Z,96926
2018-07-24T02:23:36.751Z,96929
2018-07-24T02:24:52.723Z,96923
2018-07-24T02:26:08.618Z,96925
2018-07-24T02:27:24.483Z,96923
2018-07-24T02:28:40.357Z,96926
2018-07-24T02:29:56.269Z,96916
2018-07-24T02:31:12.150Z,96917
2018-07-24T02:32:28.036Z,96913
2018-07-24T02:33:43.927Z,96912
2018-07-24T02:34:59.836Z,96913
2018-07-24T02:36:15.724Z,96912
2018-07-24T02:37:31.622Z,96914
2018-07-24T02:38:47.515Z,96915
2018-07-24T02:40:03.439Z,96912
2018-07-24T02:41:19.320Z,96913
2018-07-24T02:42:35.192Z,96911
2018-07-24T02:43:51.081Z,96907
2018-07-24T02:45:07.012Z,96909
2018-07-24T02:46:22.886Z,96912
2018-07-24T02:47:38.769Z,96910
2018-07-24T02:48:54.641Z,96910
2018-07-24T02:50:10.614Z,96908
2018-07-24T02:51:26.544Z,96904
2018-07-24T02:52:42.430Z,96906
2018-07-24T02:53:58.308Z,96904
2018-07-24T02:55:14.220Z,96903
2018-07-24T02:56:30.124Z,96904
2018-07-24T02:57:46.018Z,96902
2018-07-24T02:59:01.905Z,96902
2018-07-24T03:00:17.844Z,96905
2018-07-24T03:01:33.776Z,96903
2018-07-24T03:02:49.637Z,96902
2018-07-24T03:04:05.539Z,96903
2018-07-24T03:05:21.462Z,96902
2018-07-24T03:06:37.351Z,96901
2018-07-24T03:07:53.252Z,96904
2018-07-24T03:09:09.152Z,96901
2018-07-24T03:10:25.087Z,96905
2018-07-24T03:11:40.957Z,96906
2018-07-24T03:12:56.845Z,96905
2018-07-24T03:14:12.728Z,96901
2018-07-24T03:15:28.643Z,96901
2018-07-24T03:16:44.522Z,96899
2018-07-24T03:18:00.405Z,96901
2018-07-24T03:19:16.362Z,96903
2018-07-24T03:20:32.249Z,96905
2018-07-24T03:21:48.136Z,96902
2018-07-24T03:23:04.026Z,96901
2018-07-24T03:24:19.917Z,96901
2018-07-24T03:25:35.845Z,96903
2018-07-24T03:26:51.753Z,96903
2018-07-24T03:28:07.724Z,96904
2018-07-24T03:29:23.627Z,96900
2018-07-24T03:30:39.545Z,96898
2018-07-24T03:31:55.427Z,96892
2018-07-24T03:33:11.302Z,96893
2018-07-24T03:34:27.192Z,96897
2018-07-24T03:35:43.138Z,96900
2018-07-24T03:36:59.021Z,96893
2018-07-24T03:38:14.973Z,96893
2018-07-24T03:39:30.873Z,96891
2018-07-24T03:40:46.763Z,96889
2018-07-24T03:42:02.634Z,96887
2018-07-24T03:43:18.524Z,96887
2018-07-24T03:44:34.410Z,96885
2018-07-24T03:45:50.321Z,96884
2018-07-24T03:47:06.220Z,96884
2018-07-24T03:48:22.109Z,96887
2018-07-24T03:49:38.012Z,96884
2018-07-24T03:50:53.911Z,96885
2018-07-24T03:52:09.839Z,96885
2018-07-24T03:53:25.726Z,96883
2018-07-24T03:54:41.598Z,96882
2018-07-24T03:55:57.501Z,96885
2018-07-24T03:57:13.386Z,96882
2018-07-24T03:58:29.285Z,96888
2018-07-24T03:59:45.174Z,96884
2018-07-24T04:01:01.141Z,96885
2018-07-24T04:02:17.128Z,96882
2018-07-24T04:03:33.020Z,96885
2018-07-24T04:04:48.958Z,96886
2018-07-24T04:06:04.872Z,96886
2018-07-24T04:07:20.796Z,96882
2018-07-24T04:08:36.710Z,96881
2018-07-24T04:09:52.570Z,96883
2018-07-24T04:11:08.492Z,96882
2018-07-24T04:12:24.430Z,96882
2018-07-24T04:13:40.378Z,96884
2018-07-24T04:14:56.256Z,96882
2018-07-24T04:16:12.193Z,96884
2018-07-24T04:17:28.093Z,96885
2018-07-24T04:18:44.009Z,96882
2018-07-24T04:19:59.922Z,96884
2018-07-24T04:21:15.818Z,96885
2018-07-24T04:22:31.714Z,96886
2018-07-24T04:23:47.594Z,96881
2018-07-24T04:25:03.513Z,96885
2018-07-24T04:26:19.414Z,96884
2018-07-24T04:27:35.296Z,96883
2018-07-24T04:28:51.211Z,96879
2018-07-24T04:30:07.092Z,96882
2018-07-24T04:31:23.000Z,96880
2018-07-24T04:32:38.880Z,96878
2018-07-24T04:33:54.831Z,96881
2018-07-24T04:35:10.761Z,96878
2018-07-24T04:36:26.686Z,96876
2018-07-24T04:37:42.581Z,96874
2018-07-24T04:38:58.523Z,96874
2018-07-24T04:40:14.483Z,96869
2018-07-24T04:41:30.358Z,96870
2018-07-24T04:42:46.232Z,96870
2018-07-24T04:44:02.144Z,96871
2018-07-24T04:45:18.042Z,96869
2018-07-24T04:46:33.944Z,96871
2018-07-24T04:47:49.857Z,96868
2018-07-24T04:49:05.790Z,96867
2018-07-24T04:50:21.730Z,96869
2018-07-24T04:51:37.639Z,96868
2018-07-24T04:52:53.546Z,96868
2018-07-24T04:54:09.559Z,96871
2018-07-24T04:55:25.507Z,96869
2018-07-24T04:56:41.401Z,96868
2018-07-24T04:57:57.267Z,96870
2018-07-24T04:59:13.162Z,96870
2018-07-24T05:00:29.061Z,96868
2018-07-24T05:01:44.961Z,96869
2018-07-24T05:03:00.889Z,96868
2018-07-24T05:04:16.839Z,96865
2018-07-24T05:05:32.753Z,96869
2018-07-24T05:06:48.630Z,96865
2018-07-24T05:08:04.524Z,96869
2018-07-24T05:09:20.453Z,96868
2018-07-24T05:10:36.500Z,96872
2018-07-24T05:11:52.337Z,96866
2018-07-24T05:13:08.251Z,96869
2018-07-24T05:14:24.263Z,96870
2018-07-24T05:15:40.207Z,96874
2018-07-24T05:16:56.158Z,96870
2018-07-24T05:18:12.087Z,96870
2018-07-24T05:19:27.977Z,96870
2018-07-24T05:20:43.904Z,96869
2018-07-24T05:21:59.819Z,96873
2018-07-24T05:23:15.814Z,96874
2018-07-24T05:24:31.742Z,96872
2018-07-24T05:25:47.832Z,96873
2018-07-24T05:27:03.656Z,96873
2018-07-24T05:28:19.582Z,96876
2018-07-24T05:29:35.478Z,96879
2018-07-24T05:30:51.399Z,96879
2018-07-24T05:32:07.323Z,96875
2018-07-24T05:33:23.221Z,96878
2018-07-24T05:34:39.147Z,96874
2018-07-24T05:35:55.099Z,96875
2018-07-24T05:37:11.009Z,96877
2018-07-24T05:38:26.925Z,96876
2018-07-24T05:39:42.913Z,96876
2018-07-24T05:40:58.925Z,96879
2018-07-24T05:42:14.883Z,96880
2018-07-24T05:43:30.806Z,96878
2018-07-24T05:44:46.757Z,96872
2018-07-24T05:46:02.745Z,96870
2018-07-24T05:47:18.684Z,96871
2018-07-24T05:48:34.581Z,96872
2018-07-24T05:49:50.501Z,96873
2018-07-24T05:51:06.436Z,96872
2018-07-24T05:52:22.355Z,96872
2018-07-24T05:53:38.268Z,96871
2018-07-24T05:54:54.137Z,96875
2018-07-24T05:56:10.076Z,96875
2018-07-24T05:57:25.977Z,96874
2018-07-24T05:58:41.889Z,96878
2018-07-24T05:59:57.821Z,96877
2018-07-24T06:01:13.791Z,96872
2018-07-24T06:02:29.687Z,96874
2018-07-24T06:03:45.578Z,96874
2018-07-24T06:05:01.468Z,96870
2018-07-24T06:06:17.366Z,96874
2018-07-24T06:07:33.249Z,96875
2018-07-24T06:08:49.173Z,96875
2018-07-24T06:10:05.129Z,96877
2018-07-24T06:11:21.085Z,96875
2018-07-24T06:12:37.065Z,96876
2018-07-24T06:13:52.974Z,96875
2018-07-24T06:15:08.865Z,96874
2018-07-24T06:16:24.824Z,96871
2018-07-24T06:17:40.707Z,96874
2018-07-24T06:18:56.643Z,96870
2018-07-24T06:20:12.563Z,96872
2018-07-24T06:21:28.511Z,96874
2018-07-24T06:22:44.394Z,96872
2018-07-24T06:24:00.320Z,96874
2018-07-24T06:25:16.244Z,96872
2018-07-24T06:26:32.177Z,96874
2018-07-24T06:27:48.100Z,96871
2018-07-24T06:29:04.066Z,96870
2018-07-24T06:30:19.971Z,96874
2018-07-24T06:31:35.883Z,96870
2018-07-24T06:32:51.746Z,96866
2018-07-24T06:34:07.689Z,96868
2018-07-24T06:35:23.583Z,96868
2018-07-24T06:36:39.512Z,96865
2018-07-24T06:37:55.404Z,96867
2018-07-24T06:39:11.362Z,96866
2018-07-24T06:40:27.263Z,96864
2018-07-24T06:41:43.165Z,96860
2018-07-24T06:42:59.086Z,96863
2018-07-24T06:44:15.051Z,96862
2018-07-24T06:45:30.928Z,96862
2018-07-24T06:46:46.823Z,96866
2018-07-24T06:48:02.735Z,96862
2018-07-24T06:49:18.634Z,96863
2018-07-24T06:50:34.570Z,96867
2018-07-24T06:51:50.562Z,96858
2018-07-24T06:53:06.432Z,96866
2018-07-24T06:54:22.365Z,96864
2018-07-24T06:55:38.342Z,96862
2018-07-24T06:56:54.257Z,96864
2018-07-24T06:58:10.160Z,96861
2018-07-24T06:59:26.093Z,96864
2018-07-24T07:00:42.096Z,96866
2018-07-24T07:01:58.024Z,96865
2018-07-24T07:03:13.945Z,96863
2018-07-24T07:04:29.812Z,96866
2018-07-24T07:05:45.758Z,96870
2018-07-24T07:07:01.653Z,96867
2018-07-24T07:08:17.544Z,96865
2018-07-24T07:09:33.426Z,96864
2018-07-24T07:10:49.351Z,96867
2018-07-24T07:12:05.272Z,96869
2018-07-24T07:13:21.189Z,96871
2018-07-24T07:14:37.083Z,96873
2018-07-24T07:15:53.016Z,96874
2018-07-24T07:17:08.921Z,96872
2018-07-24T07:18:24.848Z,96876
2018-07-24T07:19:40.782Z,96879
2018-07-24T07:20:57.705Z,96872
2018-07-24T07:22:13.606Z,96873
2018-07-24T07:23:29.562Z,96868
2018-07-24T07:24:45.428Z,96872
2018-07-24T07:26:01.309Z,96865
2018-07-24T07:27:17.224Z,96858
2018-07-24T07:28:33.124Z,96857
2018-07-24T07:29:49.069Z,96858
2018-07-24T07:31:04.958Z,96857
2018-07-24T07:32:20.894Z,96857
2018-07-24T07:33:36.761Z,96856
2018-07-24T07:34:52.648Z,96860
2018-07-24T07:36:08.585Z,96859
2018-07-24T07:37:24.498Z,96860
2018-07-24T07:38:40.373Z,96860
2018-07-24T07:39:56.273Z,96860
2018-07-24T07:41:12.211Z,96859
2018-07-24T07:42:28.134Z,96859
2018-07-24T07:43:44.041Z,96862
2018-07-24T07:44:59.928Z,96860
2018-07-24T07:46:15.810Z,96858
2018-07-24T07:47:31.789Z,96854
2018-07-24T07:48:47.689Z,96856
2018-07-24T07:50:03.606Z,96857
2018-07-24T07:51:19.662Z,96863
2018-07-24T07:52:35.592Z,96856
2018-07-24T07:53:51.435Z,96852
2018-07-24T07:55:07.337Z,96853
2018-07-24T07:56:23.252Z,96849
2018-07-24T07:57:39.210Z,96850
2018-07-24T07:58:55.132Z,96846
2018-07-24T08:00:11.061Z,96846
2018-07-24T08:01:26.952Z,96844
2018-07-24T08:02:42.885Z,96849
2018-07-24T08:03:58.823Z,96843
2018-07-24T08:05:14.716Z,96842
2018-07-24T08:06:30.606Z,96844
2018-07-24T08:07:46.572Z,96840
2018-07-24T08:09:02.529Z,96842
2018-07-24T08:10:18.434Z,96839
2018-07-24T08:11:34.352Z,96844
2018-07-24T08:12:50.224Z,96841
2018-07-24T08:14:06.177Z,96843
2018-07-24T08:15:22.160Z,96842
2018-07-24T08:16:38.098Z,96839
2018-07-24T08:17:53.975Z,96837
2018-07-24T08:19:09.970Z,96840
2018-07-24T08:20:25.848Z,96838
2018-07-24T08:21:41.754Z,96836
2018-07-24T08:22:57.655Z,96838
2018-07-24T08:25:54.232Z,96838
2018-07-24T08:27:10.164Z,96840
2018-07-24T08:28:26.141Z,96839
2018-07-24T08:29:42.065Z,96841
2018-07-24T08:30:58.034Z,96838
2018-07-24T08:32:13.961Z,96834
2018-07-24T08:33:29.935Z,96836
2018-07-24T08:34:45.769Z,96843
2018-07-24T08:36:01.664Z,96839
2018-07-24T08:37:17.580Z,96837
2018-07-24T08:38:33.488Z,96839
2018-07-24T08:39:49.384Z,96839
2018-07-24T08:41:05.280Z,96840
2018-07-24T08:42:21.203Z,96845
2018-07-24T08:43:37.158Z,96847
2018-07-24T08:44:53.134Z,96848
2018-07-24T08:46:10.041Z,96845
2018-07-24T08:47:25.960Z,96842
2018-07-24T08:48:41.931Z,96844
2018-07-24T08:49:57.929Z,96841
2018-07-24T08:51:13.847Z,96842
2018-07-24T08:52:29.950Z,96849
2018-07-24T08:53:46.468Z,96842
2018-07-24T08:55:01.978Z,96840
2018-07-24T08:56:17.627Z,96841
2018-07-24T08:57:33.532Z,96839
2018-07-24T08:58:49.484Z,96841
2018-07-24T09:00:05.439Z,96844
2018-07-24T09:01:21.387Z,96845
2018-07-24T09:02:37.280Z,96847
2018-07-24T09:03:53.200Z,96842
2018-07-24T09:05:09.133Z,96838
2018-07-24T09:06:25.058Z,96834
2018-07-24T09:07:40.961Z,96836
2018-07-24T09:08:56.841Z,96839
2018-07-24T09:10:12.868Z,96840
2018-07-24T09:11:28.724Z,96836
2018-07-24T09:12:44.659Z,96839
2018-07-24T09:14:00.544Z,96839
2018-07-24T09:15:16.486Z,96843
2018-07-24T09:16:32.397Z,96840
2018-07-24T09:17:48.330Z,96839
2018-07-24T09:19:04.234Z,96835
2018-07-24T09:20:20.139Z,96833
2018-07-24T09:21:36.048Z,96835
2018-07-24T09:22:52.097Z,96834
2018-07-24T09:24:07.993Z,96830
2018-07-24T09:25:23.910Z,96829
2018-07-24T09:26:39.852Z,96826
2018-07-24T09:27:56.746Z,96830
2018-07-24T09:29:12.648Z,96831
2018-07-24T09:30:28.554Z,96833
2018-07-24T09:31:44.451Z,96826
2018-07-24T09:33:00.340Z,96830
2018-07-24T09:34:16.268Z,96830
2018-07-24T09:35:32.201Z,96826
2018-07-24T09:36:48.130Z,96828
2018-07-24T09:38:04.042Z,96823
2018-07-24T09:39:19.922Z,96827
2018-07-24T09:40:35.919Z,96820
2018-07-24T09:41:51.766Z,96821
2018-07-24T09:43:07.671Z,96821
2018-07-24T09:44:23.638Z,96822
2018-07-24T09:45:39.580Z,96818
2018-07-24T09:46:55.506Z,96813
2018-07-24T09:48:11.393Z,96819
2018-07-24T09:49:27.299Z,96816
2018-07-24T09:50:43.236Z,96813
2018-07-24T09:51:59.244Z,96812
2018-07-24T09:53:15.179Z,96818
2018-07-24T09:54:31.081Z,96815
2018-07-24T09:55:47.026Z,96816
2018-07-24T09:57:02.941Z,96815
2018-07-24T09:58:18.847Z,96818
2018-07-24T09:59:34.740Z,96819
2018-07-24T10:00:50.630Z,96815
2018-07-24T10:02:06.582Z,96815
2018-07-24T10:03:22.489Z,96822
2018-07-24T10:04:38.459Z,96818
2018-07-24T10:05:55.402Z,96812
2018-07-24T10:07:11.341Z,96812
2018-07-24T10:08:27.282Z,96813
2018-07-24T10:09:43.155Z,96804
2018-07-24T10:10:59.118Z,96809
2018-07-24T10:12:14.988Z,96806
2018-07-24T10:13:30.894Z,96805
2018-07-24T10:14:46.805Z,96805
2018-07-24T10:16:02.718Z,96808
2018-07-24T10:17:18.588Z,96807
2018-07-24T10:18:33.559Z,96802
2018-07-24T10:19:49.473Z,96804
2018-07-24T10:21:05.385Z,96801
2018-07-24T10:22:21.317Z,96796
2018-07-24T10:23:37.206Z,96792
2018-07-24T10:24:53.090Z,96792
2018-07-24T10:26:08.995Z,96791
2018-07-24T10:27:24.913Z,96793
2018-07-24T10:28:40.858Z,96791
2018-07-24T10:29:56.758Z,96788
2018-07-24T10:31:12.662Z,96785
2018-07-24T10:32:28.552Z,96785
2018-07-24T10:33:44.457Z,96782
2018-07-24T10:35:00.350Z,96777
2018-07-24T10:36:16.239Z,96781
2018-07-24T10:37:32.127Z,96778
2018-07-24T10:38:48.017Z,96780
2018-07-24T10:40:03.935Z,96780
2018-07-24T10:41:19.839Z,96776
2018-07-24T10:42:35.717Z,96776
2018-07-24T10:43:51.650Z,96776
2018-07-24T10:45:07.609Z,96776
2018-07-24T10:46:23.520Z,96777
2018-07-24T10:47:39.454Z,96778
2018-07-24T10:48:56.370Z,96779
2018-07-24T10:50:12.390Z,96779
2018-07-24T10:51:29.230Z,96783
2018-07-24T10:52:45.233Z,96781
2018-07-24T10:54:01.151Z,96786
2018-07-24T10:56:57.634Z,96779
2018-07-24T10:58:14.349Z,96772
2018-07-24T11:01:11.055Z,96774
2018-07-24T11:07:05.201Z,96771
2018-07-24T11:08:21.213Z,96768
2018-07-24T11:11:17.808Z,96765
2018-07-24T11:12:33.932Z,96767
2018-07-24T11:13:49.839Z,96767
2018-07-24T20:21:08.580Z,96696
2018-07-24T20:22:24.544Z,96691
2018-07-24T20:23:40.681Z,96693
2018-07-24T20:24:56.486Z,96692
2018-07-24T20:26:12.409Z,96689
2018-07-24T20:27:28.447Z,96690
2018-07-24T20:28:44.462Z,96684
2018-07-24T20:30:00.372Z,96691
2018-07-24T20:31:16.334Z,96688
2018-07-24T20:32:32.330Z,96688
2018-07-24T20:33:48.298Z,96686
2018-07-24T20:35:04.266Z,96685
2018-07-24T20:36:20.184Z,96690
2018-07-24T20:37:37.167Z,96689
2018-07-24T20:38:53.183Z,96687
2018-07-24T20:43:05.765Z,96692
2018-07-24T20:44:21.809Z,96693
2018-07-24T20:45:37.800Z,96693
2018-07-24T20:46:53.773Z,96691
2018-07-24T20:48:09.829Z,96694
2018-07-24T20:49:25.817Z,96695
2018-07-24T20:50:41.767Z,96697
2018-07-24T20:51:57.697Z,96698
2018-07-24T20:53:13.872Z,96698
2018-07-24T20:54:29.878Z,96698
2018-07-24T20:55:45.911Z,96698
2018-07-24T20:57:01.961Z,96697
2018-07-24T20:58:17.953Z,96697
2018-07-24T20:59:33.958Z,96694
2018-07-24T21:00:49.895Z,96695
2018-07-24T21:02:05.873Z,96695
2018-07-24T21:03:21.904Z,96695
2018-07-24T21:04:37.801Z,96698
2018-07-24T21:05:55.428Z,96698
2018-07-24T21:07:13.485Z,96699
2018-07-24T21:08:29.438Z,96700
2018-07-24T21:09:45.562Z,96705
2018-07-24T21:11:01.561Z,96703
2018-07-24T21:12:17.518Z,96704
2018-07-24T21:13:33.484Z,96704
2018-07-24T21:14:49.483Z,96703
2018-07-24T21:16:05.443Z,96705
2018-07-24T21:17:21.407Z,96708
2018-07-24T21:18:38.330Z,96707
2018-07-24T21:19:54.275Z,96707
2018-07-24T21:21:10.251Z,96706
2018-07-24T21:22:26.217Z,96705
2018-07-24T21:23:42.115Z,96704
2018-07-24T21:24:58.120Z,96705
2018-07-24T21:26:14.122Z,96708
2018-07-24T21:27:30.111Z,96708
2018-07-24T21:28:46.020Z,96708
2018-07-24T21:30:01.976Z,96710
2018-07-24T21:31:17.929Z,96714
2018-07-24T21:32:33.892Z,96712
2018-07-24T21:33:49.783Z,96716
2018-07-24T21:35:05.730Z,96714
2018-07-24T21:36:21.733Z,96717
2018-07-24T21:37:37.664Z,96720
2018-07-24T21:38:53.590Z,96718
2018-07-24T21:40:09.544Z,96718
2018-07-24T21:41:25.472Z,96718
2018-07-24T21:42:41.508Z,96714
2018-07-24T21:43:57.386Z,96714
2018-07-24T21:45:13.262Z,96714
2018-07-24T21:46:29.202Z,96718
2018-07-24T21:47:45.067Z,96720
2018-07-24T21:49:01.112Z,96719
2018-07-24T21:50:16.932Z,96717
2018-07-24T21:51:32.819Z,96717
2018-07-24T21:52:48.777Z,96717
2018-07-24T21:54:04.737Z,96717
2018-07-24T21:55:20.704Z,96722
2018-07-24T21:56:36.681Z,96723
2018-07-24T21:57:52.624Z,96719
2018-07-24T21:59:08.616Z,96719
2018-07-24T22:00:24.637Z,96719
2018-07-24T22:01:40.561Z,96717
2018-07-24T22:02:56.584Z,96716
2018-07-24T22:04:12.611Z,96715
2018-07-24T22:05:28.529Z,96722
2018-07-24T22:06:44.535Z,96721
2018-07-24T22:08:00.566Z,96721
2018-07-24T22:09:16.520Z,96717
2018-07-24T22:10:32.453Z,96720
2018-07-24T22:11:48.397Z,96719
2018-07-24T22:13:04.323Z,96722
2018-07-24T22:14:20.270Z,96722
2018-07-24T22:15:36.503Z,96724
2018-07-24T22:16:52.516Z,96724
2018-07-24T22:18:08.494Z,96725
2018-07-24T22:19:24.773Z,96722
2018-07-24T22:20:41.195Z,96720
2018-07-24T22:21:57.205Z,96725
2018-07-24T22:23:14.024Z,96722
2018-07-24T22:24:29.908Z,96726
2018-07-24T22:25:45.832Z,96728
2018-07-24T22:27:01.741Z,96728
2018-07-24T22:28:17.634Z,96726
2018-07-24T22:29:34.525Z,96730
2018-07-24T22:30:50.447Z,96724
2018-07-24T22:32:06.348Z,96726
2018-07-24T22:33:22.340Z,96726
2018-07-24T22:34:38.383Z,96721
2018-07-24T22:35:54.344Z,96722
2018-07-24T22:37:10.319Z,96729
2018-07-24T22:38:26.248Z,96729
2018-07-24T22:39:42.209Z,96729
2018-07-24T22:40:58.203Z,96735
2018-07-24T22:42:14.268Z,96731
2018-07-24T22:43:30.249Z,96733
2018-07-24T22:44:46.993Z,96731
2018-07-24T22:46:02.982Z,96731
2018-07-24T22:47:18.906Z,96731
2018-07-24T22:50:20.032Z,96730
2018-07-24T22:51:35.939Z,96735
2018-07-24T22:52:51.852Z,96737
2018-07-24T22:54:07.759Z,96737
2018-07-24T22:55:23.676Z,96740
2018-07-24T22:56:39.632Z,96740
2018-07-24T22:57:55.474Z,96741
2018-07-24T22:59:11.355Z,96744
2018-07-24T23:00:27.247Z,96743
2018-07-24T23:01:43.131Z,96746
2018-07-24T23:02:59.005Z,96742
2018-07-24T23:04:14.882Z,96745
2018-07-24T23:05:30.839Z,96747
2018-07-24T23:06:46.782Z,96747
2018-07-24T23:08:02.733Z,96748
2018-07-24T23:09:18.717Z,96749
2018-07-24T23:10:34.606Z,96747
2018-07-24T23:11:50.543Z,96749
2018-07-24T23:13:06.437Z,96750
2018-07-24T23:14:22.333Z,96748
2018-07-24T23:15:38.198Z,96750
2018-07-24T23:16:54.103Z,96745
2018-07-24T23:18:10.043Z,96746
2018-07-24T23:19:25.933Z,96750
2018-07-24T23:20:41.852Z,96743
2018-07-24T23:21:57.762Z,96749
2018-07-24T23:23:13.661Z,96753
2018-07-24T23:24:29.568Z,96755
2018-07-24T23:25:45.462Z,96757
2018-07-24T23:27:01.364Z,96760
2018-07-24T23:28:17.277Z,96757
2018-07-24T23:29:33.239Z,96762
2018-07-24T23:30:49.150Z,96759
2018-07-24T23:32:05.039Z,96756
2018-07-24T23:33:20.933Z,96757
2018-07-24T23:34:36.827Z,96756
2018-07-24T23:35:52.735Z,96756
2018-07-24T23:37:08.632Z,96754
2018-07-24T23:38:24.555Z,96757
2018-07-24T23:39:40.428Z,96755
2018-07-24T23:40:56.328Z,96751
2018-07-24T23:42:12.213Z,96748
2018-07-24T23:43:28.097Z,96751
2018-07-24T23:44:43.997Z,96751
2018-07-24T23:45:59.884Z,96750
2018-07-24T23:47:15.761Z,96750
2018-07-24T23:48:31.655Z,96749
2018-07-24T23:49:47.550Z,96747
2018-07-24T23:51:03.482Z,96748
2018-07-24T23:52:19.396Z,96746
2018-07-24T23:53:35.305Z,96747
2018-07-24T23:54:51.233Z,96747
2018-07-24T23:56:07.183Z,96747
2018-07-24T23:57:23.106Z,96746
2018-07-24T23:58:39.005Z,96745
2018-07-24T23:59:54.907Z,96751
